createdAt,value
2019-04-21T00:00:00.338Z,11.55
2019-04-21T00:02:35.971Z,11.42
2019-04-21T00:05:25.931Z,11.23
2019-04-21T00:07:52.758Z,11.15
2019-04-21T00:10:30.155Z,11.04
2019-04-21T00:12:52.257Z,10.93
2019-04-21T00:15:19.392Z,10.91
2019-04-21T00:17:43.623Z,10.89
2019-04-21T00:20:26.108Z,10.85
2019-04-21T00:22:58.797Z,10.87
2019-04-21T00:25:32.184Z,10.90
2019-04-21T00:28:09.733Z,10.86
2019-04-21T00:30:42.826Z,10.83
2019-04-21T00:32:59.720Z,10.81
2019-04-21T00:35:25.857Z,10.85
2019-04-21T00:38:13.634Z,10.77
2019-04-21T00:40:47.918Z,10.71
2019-04-21T00:43:07.815Z,10.73
2019-04-21T00:45:42.233Z,10.76
2019-04-21T00:48:23.615Z,10.81
2019-04-21T00:51:14.529Z,10.75
2019-04-21T00:53:35.706Z,10.76
2019-04-21T00:56:03.316Z,10.87
2019-04-21T00:58:33.334Z,10.92
2019-04-21T01:01:02.232Z,10.83
2019-04-21T01:03:32.710Z,10.74
2019-04-21T01:06:05.327Z,10.72
2019-04-21T01:08:31.298Z,10.73
2019-04-21T01:11:09.470Z,10.71
2019-04-21T01:13:41.266Z,10.65
2019-04-21T01:16:07.149Z,10.65
2019-04-21T01:18:38.054Z,10.65
2019-04-21T01:20:49.213Z,10.65
2019-04-21T01:23:19.219Z,10.59
2019-04-21T01:26:00.682Z,10.59
2019-04-21T01:28:35.933Z,10.52
2019-04-21T01:31:09.387Z,10.59
2019-04-21T01:33:44.363Z,10.67
2019-04-21T01:36:16.863Z,10.78
2019-04-21T01:38:48.159Z,10.73
2019-04-21T01:41:20.991Z,10.74
2019-04-21T01:43:45.746Z,10.75
2019-04-21T01:46:15.264Z,10.72
2019-04-21T01:48:45.882Z,10.58
2019-04-21T01:51:18.723Z,10.45
2019-04-21T01:53:55.069Z,10.44
2019-04-21T01:56:24.153Z,10.32
2019-04-21T01:58:48.234Z,10.17
2019-04-21T02:01:33.365Z,10.11
2019-04-21T02:04:02.755Z,10.11
2019-04-21T02:06:36.262Z,10.07
2019-04-21T02:09:05.215Z,10.14
2019-04-21T02:11:35.405Z,10.05
2019-04-21T02:14:09.964Z,10.07
2019-04-21T02:16:40.413Z,10.03
2019-04-21T02:19:04.796Z,9.91
2019-04-21T02:21:35.972Z,9.83
2019-04-21T02:24:35.159Z,9.88
2019-04-21T02:26:41.489Z,9.79
2019-04-21T02:29:15.526Z,9.70
2019-04-21T02:31:57.510Z,9.63
2019-04-21T02:34:23.758Z,9.62
2019-04-21T02:37:11.621Z,9.56
2019-04-21T02:39:35.431Z,9.51
2019-04-21T02:42:11.570Z,9.47
2019-04-21T02:44:37.500Z,9.49
2019-04-21T02:46:55.117Z,9.42
2019-04-21T02:52:15.477Z,9.56
2019-04-21T02:59:59.970Z,9.39
2019-04-21T03:02:34.963Z,9.39
2019-04-21T03:07:50.426Z,9.29
2019-04-21T03:10:20.558Z,9.30
2019-04-21T03:12:48.225Z,9.21
2019-04-21T03:15:23.484Z,9.13
2019-04-21T03:20:23.460Z,8.96
2019-04-21T03:22:58.147Z,8.85
2019-04-21T03:25:33.789Z,8.74
2019-04-21T03:30:53.110Z,8.59
2019-04-21T03:35:57.884Z,8.50
2019-04-21T03:40:28.607Z,8.48
2019-04-21T03:43:10.150Z,8.48
2019-04-21T03:45:40.569Z,8.49
2019-04-21T03:48:13.663Z,8.49
2019-04-21T03:53:09.291Z,8.47
2019-04-21T03:58:24.451Z,8.46
2019-04-21T04:01:04.120Z,8.45
2019-04-21T04:06:27.963Z,8.32
2019-04-21T04:11:33.720Z,8.25
2019-04-21T04:19:06.146Z,8.20
2019-04-21T04:24:13.746Z,8.03
2019-04-21T04:26:31.623Z,8.07
2019-04-21T04:29:08.879Z,8.04
2019-04-21T04:31:39.955Z,8.03
2019-04-21T04:34:09.865Z,8.06
2019-04-21T04:36:47.966Z,7.98
2019-04-21T04:39:25.788Z,7.90
2019-04-21T04:49:39.680Z,8.18
2019-04-21T04:54:40.927Z,8.32
2019-04-21T04:57:08.390Z,8.33
2019-04-21T05:02:14.944Z,8.48
2019-04-21T05:07:06.382Z,8.41
2019-04-21T05:09:39.611Z,8.44
2019-04-21T05:12:05.982Z,8.50
2019-04-21T05:14:40.463Z,8.64
2019-04-21T05:17:19.667Z,8.89
2019-04-21T05:22:17.305Z,9.11
2019-04-21T05:24:35.545Z,9.07
2019-04-21T05:27:05.014Z,9.12
2019-04-21T05:29:49.244Z,9.31
2019-04-21T05:32:17.154Z,9.50
2019-04-21T05:35:00.213Z,9.68
2019-04-21T05:37:29.325Z,10.02
2019-04-21T05:40:00.662Z,10.39
2019-04-21T05:42:28.876Z,11.34
2019-04-21T05:45:25.436Z,12.00
2019-04-21T05:47:52.679Z,13.18
2019-04-21T05:50:11.530Z,13.91
2019-04-21T05:52:45.958Z,14.23
2019-04-21T05:55:33.473Z,14.24
2019-04-21T05:57:57.321Z,14.73
2019-04-21T06:03:06.992Z,16.09
2019-04-21T06:05:43.607Z,16.27
2019-04-21T06:08:09.877Z,16.03
2019-04-21T06:10:41.946Z,15.51
2019-04-21T06:13:12.930Z,15.46
2019-04-21T06:15:44.596Z,15.33
2019-04-21T06:18:11.705Z,15.26
2019-04-21T06:20:40.571Z,15.47
2019-04-21T06:23:12.020Z,15.60
2019-04-21T06:26:25.629Z,14.97
2019-04-21T06:28:17.886Z,14.60
2019-04-21T06:30:57.280Z,14.25
2019-04-21T06:33:21.400Z,13.98
2019-04-21T06:36:20.887Z,14.16
2019-04-21T06:38:54.403Z,14.20
2019-04-21T06:41:13.526Z,14.17
2019-04-21T06:43:48.552Z,14.01
2019-04-21T06:46:21.094Z,13.76
2019-04-21T06:48:49.541Z,13.90
2019-04-21T06:51:22.456Z,14.08
2019-04-21T06:53:55.998Z,14.33
2019-04-21T06:56:21.811Z,14.32
2019-04-21T06:58:51.833Z,14.40
2019-04-21T07:01:25.987Z,14.54
2019-04-21T07:04:01.671Z,14.56
2019-04-21T07:06:32.416Z,14.78
2019-04-21T07:09:02.930Z,15.06
2019-04-21T07:11:28.744Z,15.13
2019-04-21T07:14:14.827Z,15.17
2019-04-21T07:16:31.902Z,15.39
2019-04-21T07:19:05.900Z,15.34
2019-04-21T07:21:34.072Z,15.15
2019-04-21T07:24:05.754Z,15.27
2019-04-21T07:26:36.733Z,15.55
2019-04-21T07:29:12.898Z,15.54
2019-04-21T07:31:40.405Z,15.53
2019-04-21T07:34:14.284Z,15.70
2019-04-21T07:36:48.123Z,15.66
2019-04-21T07:39:06.189Z,15.77
2019-04-21T07:41:42.520Z,15.83
2019-04-21T07:44:04.911Z,16.20
2019-04-21T07:46:36.606Z,16.26
2019-04-21T07:49:12.470Z,16.73
2019-04-21T07:51:57.625Z,17.28
2019-04-21T07:54:32.097Z,17.09
2019-04-21T07:56:44.196Z,16.92
2019-04-21T07:59:37.108Z,16.81
2019-04-21T08:02:02.373Z,16.74
2019-04-21T08:06:56.686Z,16.87
2019-04-21T08:09:37.136Z,16.88
2019-04-21T08:12:00.125Z,16.99
2019-04-21T08:14:39.523Z,17.10
2019-04-21T08:17:03.151Z,17.30
2019-04-21T08:19:35.223Z,17.33
2019-04-21T08:22:11.032Z,17.29
2019-04-21T08:24:46.893Z,17.44
2019-04-21T08:27:10.956Z,17.61
2019-04-21T08:32:14.483Z,17.74
2019-04-21T08:34:55.109Z,17.80
2019-04-21T08:37:15.050Z,18.04
2019-04-21T08:39:58.126Z,18.09
2019-04-21T08:42:18.200Z,18.21
2019-04-21T08:44:52.716Z,18.37
2019-04-21T08:47:20.325Z,18.31
2019-04-21T08:49:47.629Z,18.53
2019-04-21T08:52:39.399Z,18.67
2019-04-21T08:54:55.716Z,18.72
2019-04-21T08:57:34.874Z,18.92
2019-04-21T09:00:13.977Z,19.11
2019-04-21T09:02:40.295Z,18.98
2019-04-21T09:05:11.414Z,19.17
2019-04-21T09:07:49.559Z,19.36
2019-04-21T09:10:09.281Z,19.26
2019-04-21T09:12:41.778Z,19.55
2019-04-21T09:15:14.083Z,19.96
2019-04-21T09:17:41.401Z,20.26
2019-04-21T09:20:26.459Z,21.07
2019-04-21T09:22:50.076Z,21.99
2019-04-21T09:25:30.902Z,23.34
2019-04-21T09:27:53.685Z,25.58
2019-04-21T09:30:06.899Z,26.14
2019-04-21T09:32:38.529Z,27.23
2019-04-21T09:35:12.458Z,26.70
2019-04-21T09:37:47.315Z,27.93
2019-04-21T09:40:13.168Z,27.93
2019-04-21T09:42:50.295Z,28.62
2019-04-21T09:45:14.316Z,28.45
2019-04-21T09:47:52.548Z,28.95
2019-04-21T09:50:15.240Z,28.59
2019-04-21T09:52:49.752Z,27.57
2019-04-21T09:55:20.677Z,29.79
2019-04-21T09:57:53.550Z,30.98
2019-04-21T10:00:24.790Z,29.41
2019-04-21T10:02:58.628Z,30.00
2019-04-21T10:05:22.984Z,30.08
2019-04-21T10:07:55.141Z,30.02
2019-04-21T10:10:25.529Z,29.61
2019-04-21T10:12:56.215Z,28.60
2019-04-21T10:15:27.857Z,28.71
2019-04-21T10:17:58.438Z,28.98
2019-04-21T10:20:28.536Z,30.33
2019-04-21T10:22:57.956Z,30.33
2019-04-21T10:25:28.382Z,29.25
2019-04-21T10:27:58.966Z,29.84
2019-04-21T10:30:28.775Z,30.47
2019-04-21T10:32:58.539Z,30.21
2019-04-21T10:35:28.903Z,30.37
2019-04-21T10:38:10.996Z,30.38
2019-04-21T10:40:32.637Z,30.89
2019-04-21T10:43:01.610Z,30.93
2019-04-21T10:45:32.825Z,29.56
2019-04-21T10:48:03.028Z,30.09
2019-04-21T10:50:34.705Z,30.91
2019-04-21T10:53:13.382Z,31.75
2019-04-21T10:55:57.899Z,30.82
2019-04-21T10:58:20.375Z,32.28
2019-04-21T11:01:08.646Z,32.37
2019-04-21T11:03:42.755Z,30.63
2019-04-21T11:06:14.746Z,30.42
2019-04-21T11:08:48.572Z,30.69
2019-04-21T11:11:16.228Z,31.93
2019-04-21T11:13:46.390Z,31.28
2019-04-21T11:16:17.139Z,31.33
2019-04-21T11:18:48.151Z,31.21
2019-04-21T11:21:18.805Z,30.42
2019-04-21T11:23:48.198Z,30.05
2019-04-21T11:26:19.886Z,30.89
2019-04-21T11:28:56.871Z,30.99
2019-04-21T11:31:27.181Z,31.05
2019-04-21T11:33:57.547Z,32.19
2019-04-21T11:36:27.231Z,30.73
2019-04-21T11:39:16.611Z,31.85
2019-04-21T11:41:34.101Z,32.06
2019-04-21T11:44:05.005Z,32.50
2019-04-21T11:46:34.471Z,32.45
2019-04-21T11:49:04.138Z,31.36
2019-04-21T11:51:33.551Z,30.63
2019-04-21T11:54:04.528Z,31.33
2019-04-21T11:56:34.805Z,29.93
2019-04-21T11:59:05.778Z,30.27
2019-04-21T12:01:35.952Z,30.99
2019-04-21T12:04:07.602Z,31.47
2019-04-21T12:06:43.478Z,31.91
2019-04-21T12:09:10.103Z,31.77
2019-04-21T12:11:41.121Z,31.99
2019-04-21T12:14:10.593Z,32.05
2019-04-21T12:16:41.398Z,32.13
2019-04-21T12:19:10.712Z,31.50
2019-04-21T12:21:54.685Z,31.53
2019-04-21T12:24:13.162Z,31.73
2019-04-21T12:26:42.617Z,30.82
2019-04-21T12:29:11.953Z,31.59
2019-04-21T12:31:59.505Z,32.28
2019-04-21T12:34:30.224Z,32.14
2019-04-21T12:37:01.079Z,31.18
2019-04-21T12:39:32.729Z,30.99
2019-04-21T12:42:02.670Z,31.97
2019-04-21T12:44:32.095Z,31.90
2019-04-21T12:47:01.722Z,31.31
2019-04-21T12:49:31.835Z,31.21
2019-04-21T12:52:01.880Z,31.58
2019-04-21T12:54:33.365Z,31.22
2019-04-21T12:57:03.456Z,30.91
2019-04-21T12:59:34.501Z,31.34
2019-04-21T13:02:04.147Z,31.50
2019-04-21T13:04:33.650Z,31.80
2019-04-21T13:07:05.573Z,32.08
2019-04-21T13:09:36.102Z,31.96
2019-04-21T13:12:06.929Z,31.92
2019-04-21T13:14:37.801Z,31.93
2019-04-21T13:17:09.775Z,32.19
2019-04-21T13:19:39.502Z,31.69
2019-04-21T13:22:09.977Z,31.42
2019-04-21T13:24:39.948Z,31.63
2019-04-21T13:27:12.376Z,32.14
2019-04-21T13:29:41.948Z,31.93
2019-04-21T13:32:12.592Z,32.42
2019-04-21T13:34:42.194Z,32.72
2019-04-21T13:37:12.559Z,32.37
2019-04-21T13:40:11.097Z,32.51
2019-04-21T13:42:34.207Z,32.16
2019-04-21T13:44:57.820Z,32.01
2019-04-21T13:47:28.272Z,31.60
2019-04-21T13:49:59.893Z,32.23
2019-04-21T13:52:29.023Z,32.12
2019-04-21T13:54:58.385Z,31.68
2019-04-21T13:57:28.505Z,31.68
2019-04-21T13:59:59.236Z,30.56
2019-04-21T14:02:30.905Z,31.11
2019-04-21T14:05:01.756Z,31.87
2019-04-21T14:07:32.164Z,31.34
2019-04-21T14:10:06.302Z,31.78
2019-04-21T14:12:32.702Z,31.70
2019-04-21T14:15:02.293Z,31.60
2019-04-21T14:17:34.980Z,31.57
2019-04-21T14:20:09.031Z,31.37
2019-04-21T14:22:38.416Z,30.52
2019-04-21T14:25:08.239Z,31.08
2019-04-21T14:27:38.555Z,31.01
2019-04-21T14:30:10.381Z,30.72
2019-04-21T14:32:40.467Z,30.18
2019-04-21T14:35:10.941Z,30.35
2019-04-21T14:37:42.467Z,30.88
2019-04-21T14:40:17.347Z,29.61
2019-04-21T14:42:44.433Z,29.71
2019-04-21T14:45:16.825Z,29.44
2019-04-21T14:47:48.250Z,29.45
2019-04-21T14:50:36.591Z,29.06
2019-04-21T14:53:11.849Z,29.25
2019-04-21T14:55:45.473Z,29.62
2019-04-21T14:58:15.358Z,30.02
2019-04-21T15:00:55.592Z,29.63
2019-04-21T15:03:25.822Z,29.60
2019-04-21T15:05:55.708Z,29.62
2019-04-21T15:08:25.230Z,30.26
2019-04-21T15:10:54.920Z,30.74
2019-04-21T15:13:25.809Z,30.30
2019-04-21T15:15:56.287Z,30.47
2019-04-21T15:18:26.871Z,30.04
2019-04-21T15:20:57.461Z,30.28
2019-04-21T15:23:28.663Z,29.91
2019-04-21T15:25:58.010Z,29.48
2019-04-21T15:28:31.669Z,29.53
2019-04-21T15:30:58.678Z,30.10
2019-04-21T15:33:29.125Z,29.76
2019-04-21T15:35:58.450Z,30.16
2019-04-21T15:38:27.758Z,30.21
2019-04-21T15:41:02.293Z,29.34
2019-04-21T15:43:28.643Z,29.31
2019-04-21T15:45:58.080Z,28.80
2019-04-21T15:48:28.802Z,29.19
2019-04-21T15:50:58.866Z,29.07
2019-04-21T15:53:31.947Z,28.88
2019-04-21T15:56:04.631Z,29.05
2019-04-21T15:58:52.706Z,29.07
2019-04-21T16:01:36.600Z,28.91
2019-04-21T16:04:07.851Z,29.33
2019-04-21T16:06:37.876Z,29.49
2019-04-21T16:09:16.168Z,29.15
2019-04-21T16:11:40.245Z,28.72
2019-04-21T16:14:10.182Z,28.35
2019-04-21T16:16:41.035Z,28.78
2019-04-21T16:19:12.157Z,28.72
2019-04-21T16:21:45.937Z,28.42
2019-04-21T16:24:14.271Z,28.36
2019-04-21T16:26:44.635Z,28.56
2019-04-21T16:29:15.481Z,28.48
2019-04-21T16:31:47.006Z,27.84
2019-04-21T16:34:17.881Z,28.50
2019-04-21T16:36:49.759Z,28.19
2019-04-21T16:39:19.715Z,27.90
2019-04-21T16:41:50.029Z,28.09
2019-04-21T16:44:20.907Z,28.45
2019-04-21T16:46:51.688Z,27.59
2019-04-21T16:49:22.242Z,27.70
2019-04-21T16:51:53.950Z,27.41
2019-04-21T16:54:26.239Z,27.33
2019-04-21T16:57:03.819Z,26.96
2019-04-21T16:59:35.012Z,26.50
2019-04-21T17:02:04.886Z,26.31
2019-04-21T17:04:34.310Z,26.18
2019-04-21T17:07:05.070Z,25.50
2019-04-21T17:09:34.834Z,24.87
2019-04-21T17:12:09.701Z,24.50
2019-04-21T17:14:53.668Z,24.15
2019-04-21T17:17:32.337Z,24.01
2019-04-21T17:19:45.554Z,23.78
2019-04-21T17:22:13.482Z,23.48
2019-04-21T17:24:44.362Z,23.16
2019-04-21T17:27:15.276Z,23.12
2019-04-21T17:29:46.236Z,22.87
2019-04-21T17:32:16.438Z,22.72
2019-04-21T17:34:45.929Z,22.55
2019-04-21T17:37:15.354Z,22.24
2019-04-21T17:39:45.004Z,22.01
2019-04-21T17:42:26.444Z,21.83
2019-04-21T17:44:45.633Z,21.55
2019-04-21T17:47:25.330Z,21.33
2019-04-21T17:49:50.815Z,21.14
2019-04-21T17:52:38.843Z,20.96
2019-04-21T17:55:16.833Z,20.69
2019-04-21T17:57:57.103Z,20.48
2019-04-21T18:00:49.460Z,20.35
2019-04-21T18:03:01.781Z,20.16
2019-04-21T18:05:31.932Z,19.98
2019-04-21T18:08:00.082Z,19.82
2019-04-21T18:10:30.688Z,19.68
2019-04-21T18:12:57.922Z,19.61
2019-04-21T18:15:37.169Z,19.59
2019-04-21T18:17:50.595Z,19.41
2019-04-21T18:20:25.783Z,19.30
2019-04-21T18:23:07.470Z,19.22
2019-04-21T18:25:48.572Z,19.09
2019-04-21T18:28:08.763Z,18.96
2019-04-21T18:30:48.735Z,18.79
2019-04-21T18:33:26.612Z,18.68
2019-04-21T18:35:56.291Z,18.56
2019-04-21T18:38:51.835Z,18.36
2019-04-21T18:41:01.466Z,18.13
2019-04-21T18:44:08.064Z,17.86
2019-04-21T18:46:27.017Z,17.81
2019-04-21T18:48:50.849Z,17.44
2019-04-21T18:51:34.642Z,17.33
2019-04-21T18:54:24.151Z,17.33
2019-04-21T18:56:29.689Z,17.14
2019-04-21T18:59:00.603Z,17.10
2019-04-21T19:01:34.402Z,16.83
2019-04-21T19:04:05.383Z,16.79
2019-04-21T19:06:46.857Z,16.64
2019-04-21T19:09:26.655Z,16.52
2019-04-21T19:12:00.840Z,16.41
2019-04-21T19:14:31.971Z,16.36
2019-04-21T19:17:29.232Z,16.20
2019-04-21T19:19:44.469Z,16.10
2019-04-21T19:22:06.258Z,15.89
2019-04-21T19:24:52.385Z,15.82
2019-04-21T19:27:12.080Z,15.59
2019-04-21T19:29:45.216Z,15.50
2019-04-21T19:32:14.918Z,15.48
2019-04-21T19:34:29.347Z,15.38
2019-04-21T19:37:00.687Z,15.28
2019-04-21T19:39:39.404Z,15.23
2019-04-21T19:42:08.621Z,15.22
2019-04-21T19:44:47.128Z,15.10
2019-04-21T19:47:26.257Z,15.12
2019-04-21T19:49:55.421Z,15.06
2019-04-21T19:52:11.615Z,15.06
2019-04-21T19:54:39.739Z,14.96
2019-04-21T19:57:07.092Z,14.88
2019-04-21T19:59:44.713Z,14.73
2019-04-21T20:02:09.001Z,14.61
2019-04-21T20:04:47.926Z,14.49
2019-04-21T20:07:30.728Z,14.33
2019-04-21T20:10:02.383Z,14.18
2019-04-21T20:12:36.599Z,14.10
2019-04-21T20:15:08.437Z,14.04
2019-04-21T20:17:33.587Z,14.01
2019-04-21T20:19:46.017Z,14.05
2019-04-21T20:22:16.757Z,14.09
2019-04-21T20:24:53.948Z,14.11
2019-04-21T20:27:31.134Z,14.03
2019-04-21T20:30:08.069Z,13.93
2019-04-21T20:32:38.206Z,13.79
2019-04-21T20:35:34.691Z,13.68
2019-04-21T20:37:37.582Z,13.55
2019-04-21T20:39:59.845Z,13.49
2019-04-21T20:42:40.287Z,13.47
2019-04-21T20:45:28.918Z,13.43
2019-04-21T20:47:36.711Z,13.35
2019-04-21T20:50:12.338Z,13.38
2019-04-21T20:52:47.890Z,13.35
2019-04-21T20:55:10.651Z,13.21
2019-04-21T20:57:49.372Z,13.13
2019-04-21T21:00:21.757Z,13.01
2019-04-21T21:02:52.099Z,12.96
2019-04-21T21:05:24.697Z,12.91
2019-04-21T21:07:57.036Z,12.91
2019-04-21T21:10:26.110Z,12.99
2019-04-21T21:13:08.816Z,12.99
2019-04-21T21:15:29.142Z,12.90
2019-04-21T21:18:13.919Z,12.85
2019-04-21T21:20:35.663Z,12.78
2019-04-21T21:23:05.749Z,12.69
2019-04-21T21:25:44.708Z,12.70
2019-04-21T21:28:04.372Z,12.77
2019-04-21T21:30:41.741Z,12.82
2019-04-21T21:33:15.251Z,12.82
2019-04-21T21:35:37.971Z,12.76
2019-04-21T21:38:13.117Z,12.71
2019-04-21T21:40:45.487Z,12.62
2019-04-21T21:43:09.242Z,12.63
2019-04-21T21:45:41.091Z,12.66
2019-04-21T21:48:21.703Z,12.65
2019-04-21T21:50:45.969Z,12.62
2019-04-21T21:53:13.584Z,12.53
2019-04-21T21:55:38.584Z,12.52
2019-04-21T21:58:09.987Z,12.48
2019-04-21T22:00:43.145Z,12.39
2019-04-21T22:03:19.649Z,12.48
2019-04-21T22:05:50.406Z,12.42
2019-04-21T22:08:16.374Z,12.38
2019-04-21T22:10:45.687Z,12.31
2019-04-21T22:13:19.809Z,12.25
2019-04-21T22:15:48.283Z,12.22
2019-04-21T22:18:36.174Z,12.22
2019-04-21T22:21:04.962Z,12.26
2019-04-21T22:23:34.002Z,12.18
2019-04-21T22:25:51.437Z,12.16
2019-04-21T22:28:22.188Z,12.14
2019-04-21T22:30:53.375Z,12.12
2019-04-21T22:33:23.326Z,12.11
2019-04-21T22:36:02.062Z,12.10
2019-04-21T22:38:42.135Z,12.04
2019-04-21T22:41:10.103Z,12.00
2019-04-21T22:43:34.580Z,11.92
2019-04-21T22:45:59.331Z,11.92
2019-04-21T22:48:29.473Z,11.92
2019-04-21T22:51:00.606Z,11.95
2019-04-21T22:53:36.012Z,11.97
2019-04-21T22:56:11.986Z,12.00
2019-04-21T22:58:37.338Z,12.00
2019-04-21T23:01:05.579Z,11.95
2019-04-21T23:03:35.749Z,11.76
2019-04-21T23:06:13.567Z,11.68
2019-04-21T23:08:40.493Z,11.58
2019-04-21T23:11:11.898Z,11.52
2019-04-21T23:13:38.706Z,11.51
2019-04-21T23:16:09.870Z,11.51
2019-04-21T23:18:54.458Z,11.54
2019-04-21T23:21:25.838Z,11.45
2019-04-21T23:24:01.769Z,11.51
2019-04-21T23:26:33.120Z,11.54
2019-04-21T23:29:10.385Z,11.46
2019-04-21T23:31:34.153Z,11.39
2019-04-21T23:33:48.416Z,11.37
2019-04-21T23:36:24.166Z,11.36
2019-04-21T23:38:51.988Z,11.38
2019-04-21T23:41:21.490Z,11.39
2019-04-21T23:43:59.183Z,11.32
2019-04-21T23:46:26.741Z,11.29
2019-04-21T23:49:07.489Z,11.37
2019-04-21T23:51:36.640Z,11.31
2019-04-21T23:53:55.449Z,11.18
2019-04-21T23:56:30.064Z,11.19
2019-04-21T23:59:02.622Z,11.19
